KFMH/FMH METAR and TAF weather

Enter ICAO airport designator
Station Type Date Time Source
KFMH METAR 2020/06/06 20:00 UTC NOAA

KFMH 062000Z 25011KT 7SM BKN0008 BKN013 23/20 A2967 RMK VIS NW 2 LTG DSTN N AND NW


Station Type Date Time Source
KFMH Decoded METAR 2020/06/06 20:00 UTC NOAA

Otis Air National Guard Base, MA, United States (KFMH) 41-39N 070-31W
Jun 06, 2020 - 04:00 PM EDT / 2020.06.06 2000 UTC
Wind: from the WSW (250 degrees) at 13 MPH (11 KT):0
Visibility: 7 mile(s):0
Sky conditions: mostly cloudy
Weather: Lightning observed
Temperature: 73 F (23 C)
Dew Point: 68 F (20 C)
Relative Humidity: 83%
Pressure (altimeter): 29.67 in. Hg (1004 hPa)
ob: KFMH 062000Z 25011KT 7SM BKN0008 BKN013 23/20 A2967 RMK VIS NW 2 LTG DSTN N AND NW
cycle: 20

Station Type Date Time Source
KFMH TAF 2020/06/06 18:33 UTC NOAA

TAF KFMH 061730Z 0618/0718 25014KT P6SM BKN007 OVC013
FM061900 22010G19KT P6SM BKN150
FM062300 25006KT P6SM -SHRA OVC060
FM070100 28004KT P6SM VCSH BKN060
FM070400 31004KT P6SM SCT090
FM071400 02010G19KT P6SM BKN020

Example: see airport list